sensor_id;sensor_type;location;lat;lon;timestamp;temperature;humidity
54202;DHT22;40108;53.152;5.844;2023-02-21T00:00:24;9.50;94.00
54202;DHT22;40108;53.152;5.844;2023-02-21T00:03:09;9.40;94.10
54202;DHT22;40108;53.152;5.844;2023-02-21T00:05:55;9.40;94.10
54202;DHT22;40108;53.152;5.844;2023-02-21T00:08:39;9.40;94.10
54202;DHT22;40108;53.152;5.844;2023-02-21T00:11:23;9.40;94.10
54202;DHT22;40108;53.152;5.844;2023-02-21T00:14:08;9.40;94.10
54202;DHT22;40108;53.152;5.844;2023-02-21T00:16:52;9.40;94.20
54202;DHT22;40108;53.152;5.844;2023-02-21T00:19:36;9.40;94.20
54202;DHT22;40108;53.152;5.844;2023-02-21T00:22:20;9.40;94.20
54202;DHT22;40108;53.152;5.844;2023-02-21T00:25:05;9.40;94.20
54202;DHT22;40108;53.152;5.844;2023-02-21T00:27:49;9.40;94.20
54202;DHT22;40108;53.152;5.844;2023-02-21T00:30:33;9.40;94.10
54202;DHT22;40108;53.152;5.844;2023-02-21T00:33:17;9.40;94.10
54202;DHT22;40108;53.152;5.844;2023-02-21T00:36:02;9.40;94.10
54202;DHT22;40108;53.152;5.844;2023-02-21T00:38:46;9.40;94.10
54202;DHT22;40108;53.152;5.844;2023-02-21T00:41:31;9.40;94.10
54202;DHT22;40108;53.152;5.844;2023-02-21T00:44:15;9.40;94.10
54202;DHT22;40108;53.152;5.844;2023-02-21T00:46:59;9.40;94.00
54202;DHT22;40108;53.152;5.844;2023-02-21T00:49:43;9.40;94.00
54202;DHT22;40108;53.152;5.844;2023-02-21T00:52:27;9.30;94.00
54202;DHT22;40108;53.152;5.844;2023-02-21T00:55:12;9.30;94.00
54202;DHT22;40108;53.152;5.844;2023-02-21T00:57:56;9.30;94.00
54202;DHT22;40108;53.152;5.844;2023-02-21T01:00:40;9.20;94.00
54202;DHT22;40108;53.152;5.844;2023-02-21T01:03:27;9.20;94.10
54202;DHT22;40108;53.152;5.844;2023-02-21T01:06:11;9.30;94.10
54202;DHT22;40108;53.152;5.844;2023-02-21T01:08:56;9.20;94.10
54202;DHT22;40108;53.152;5.844;2023-02-21T01:11:40;9.20;94.20
54202;DHT22;40108;53.152;5.844;2023-02-21T01:14:24;9.20;94.30
54202;DHT22;40108;53.152;5.844;2023-02-21T01:17:09;9.20;94.20
54202;DHT22;40108;53.152;5.844;2023-02-21T01:19:53;9.20;94.30
54202;DHT22;40108;53.152;5.844;2023-02-21T01:22:37;9.20;94.30
54202;DHT22;40108;53.152;5.844;2023-02-21T01:25:21;9.20;94.30
54202;DHT22;40108;53.152;5.844;2023-02-21T01:28:06;9.20;94.40
54202;DHT22;40108;53.152;5.844;2023-02-21T01:30:50;9.20;94.40
54202;DHT22;40108;53.152;5.844;2023-02-21T01:33:39;9.20;94.40
54202;DHT22;40108;53.152;5.844;2023-02-21T01:36:24;9.20;94.40
54202;DHT22;40108;53.152;5.844;2023-02-21T01:39:09;9.20;94.40
54202;DHT22;40108;53.152;5.844;2023-02-21T01:41:53;9.20;94.40
54202;DHT22;40108;53.152;5.844;2023-02-21T01:44:45;9.20;94.40
54202;DHT22;40108;53.152;5.844;2023-02-21T01:47:30;9.20;94.40
54202;DHT22;40108;53.152;5.844;2023-02-21T01:50:22;9.20;94.40
54202;DHT22;40108;53.152;5.844;2023-02-21T01:53:15;9.20;94.40
54202;DHT22;40108;53.152;5.844;2023-02-21T01:56:01;9.20;94.40
54202;DHT22;40108;53.152;5.844;2023-02-21T01:58:47;9.20;94.50
54202;DHT22;40108;53.152;5.844;2023-02-21T02:01:39;9.20;94.50
54202;DHT22;40108;53.152;5.844;2023-02-21T02:04:24;9.10;94.50
54202;DHT22;40108;53.152;5.844;2023-02-21T02:07:09;9.10;94.50
54202;DHT22;40108;53.152;5.844;2023-02-21T02:09:53;9.10;94.50
54202;DHT22;40108;53.152;5.844;2023-02-21T02:12:51;9.10;94.60
54202;DHT22;40108;53.152;5.844;2023-02-21T02:32:28;9.00;94.80
54202;DHT22;40108;53.152;5.844;2023-02-21T02:35:03;8.90;94.80
54202;DHT22;40108;53.152;5.844;2023-02-21T02:37:56;8.90;94.80
54202;DHT22;40108;53.152;5.844;2023-02-21T02:40:41;9.00;94.80
54202;DHT22;40108;53.152;5.844;2023-02-21T02:46:13;8.90;94.80
54202;DHT22;40108;53.152;5.844;2023-02-21T02:48:43;9.00;94.80
54202;DHT22;40108;53.152;5.844;2023-02-21T02:51:13;8.90;94.80
54202;DHT22;40108;53.152;5.844;2023-02-21T02:53:39;9.00;94.80
54202;DHT22;40108;53.152;5.844;2023-02-21T02:56:08;8.90;94.80
54202;DHT22;40108;53.152;5.844;2023-02-21T03:01:52;9.00;94.80
54202;DHT22;40108;53.152;5.844;2023-02-21T03:12:45;9.00;94.90
54202;DHT22;40108;53.152;5.844;2023-02-21T03:15:34;8.90;94.90
54202;DHT22;40108;53.152;5.844;2023-02-21T03:18:08;8.90;94.90
54202;DHT22;40108;53.152;5.844;2023-02-21T03:20:36;8.90;95.00
54202;DHT22;40108;53.152;5.844;2023-02-21T03:23:04;8.90;95.00
54202;DHT22;40108;53.152;5.844;2023-02-21T03:25:31;8.90;95.00
54202;DHT22;40108;53.152;5.844;2023-02-21T03:27:59;8.90;95.00
54202;DHT22;40108;53.152;5.844;2023-02-21T03:30:27;8.80;95.10
54202;DHT22;40108;53.152;5.844;2023-02-21T03:32:54;8.80;95.10
54202;DHT22;40108;53.152;5.844;2023-02-21T03:35:21;8.80;95.10
54202;DHT22;40108;53.152;5.844;2023-02-21T03:37:49;8.80;95.20
54202;DHT22;40108;53.152;5.844;2023-02-21T03:40:31;8.80;95.20
54202;DHT22;40108;53.152;5.844;2023-02-21T03:43:00;8.80;95.20
54202;DHT22;40108;53.152;5.844;2023-02-21T03:45:26;8.80;95.20
54202;DHT22;40108;53.152;5.844;2023-02-21T03:47:52;8.80;95.20
54202;DHT22;40108;53.152;5.844;2023-02-21T03:50:18;8.80;95.30
54202;DHT22;40108;53.152;5.844;2023-02-21T03:52:44;8.80;95.30
54202;DHT22;40108;53.152;5.844;2023-02-21T03:55:09;8.80;95.30
54202;DHT22;40108;53.152;5.844;2023-02-21T03:57:35;8.70;95.30
54202;DHT22;40108;53.152;5.844;2023-02-21T04:00:01;8.70;95.30
54202;DHT22;40108;53.152;5.844;2023-02-21T04:02:27;8.70;95.30
54202;DHT22;40108;53.152;5.844;2023-02-21T04:04:53;8.70;95.30
54202;DHT22;40108;53.152;5.844;2023-02-21T04:07:19;8.70;95.30
54202;DHT22;40108;53.152;5.844;2023-02-21T04:09:46;8.70;95.40
54202;DHT22;40108;53.152;5.844;2023-02-21T04:12:13;8.70;95.40
54202;DHT22;40108;53.152;5.844;2023-02-21T04:14:39;8.70;95.40
54202;DHT22;40108;53.152;5.844;2023-02-21T04:17:05;8.70;95.40
54202;DHT22;40108;53.152;5.844;2023-02-21T04:19:31;8.60;95.40
54202;DHT22;40108;53.152;5.844;2023-02-21T04:21:57;8.60;95.40
54202;DHT22;40108;53.152;5.844;2023-02-21T04:24:22;8.60;95.40
54202;DHT22;40108;53.152;5.844;2023-02-21T04:26:48;8.60;95.50
54202;DHT22;40108;53.152;5.844;2023-02-21T04:29:14;8.60;95.50
54202;DHT22;40108;53.152;5.844;2023-02-21T04:31:40;8.60;95.50
54202;DHT22;40108;53.152;5.844;2023-02-21T04:34:06;8.60;95.50
54202;DHT22;40108;53.152;5.844;2023-02-21T04:36:34;8.60;95.50
54202;DHT22;40108;53.152;5.844;2023-02-21T04:39:03;8.60;95.60
54202;DHT22;40108;53.152;5.844;2023-02-21T04:41:28;8.60;95.50
54202;DHT22;40108;53.152;5.844;2023-02-21T04:43:57;8.50;95.60
54202;DHT22;40108;53.152;5.844;2023-02-21T04:46:23;8.60;95.60
54202;DHT22;40108;53.152;5.844;2023-02-21T04:48:51;8.50;95.60
54202;DHT22;40108;53.152;5.844;2023-02-21T04:51:20;8.50;95.60
54202;DHT22;40108;53.152;5.844;2023-02-21T04:53:46;8.60;95.70
54202;DHT22;40108;53.152;5.844;2023-02-21T04:56:13;8.50;95.70
54202;DHT22;40108;53.152;5.844;2023-02-21T04:58:40;8.60;95.70
54202;DHT22;40108;53.152;5.844;2023-02-21T05:01:05;8.50;95.70
54202;DHT22;40108;53.152;5.844;2023-02-21T05:03:31;8.50;95.70
54202;DHT22;40108;53.152;5.844;2023-02-21T05:05:57;8.60;95.70
54202;DHT22;40108;53.152;5.844;2023-02-21T05:08:22;8.60;95.70
54202;DHT22;40108;53.152;5.844;2023-02-21T05:10:49;8.50;95.70
54202;DHT22;40108;53.152;5.844;2023-02-21T05:13:15;8.60;95.70
54202;DHT22;40108;53.152;5.844;2023-02-21T05:15:41;8.60;95.70
54202;DHT22;40108;53.152;5.844;2023-02-21T05:18:07;8.60;95.70
54202;DHT22;40108;53.152;5.844;2023-02-21T05:20:33;8.60;95.70
54202;DHT22;40108;53.152;5.844;2023-02-21T05:22:59;8.50;95.70
54202;DHT22;40108;53.152;5.844;2023-02-21T05:25:25;8.60;95.70
54202;DHT22;40108;53.152;5.844;2023-02-21T05:27:51;8.60;95.70
54202;DHT22;40108;53.152;5.844;2023-02-21T05:30:19;8.50;95.70
54202;DHT22;40108;53.152;5.844;2023-02-21T05:32:45;8.50;95.70
54202;DHT22;40108;53.152;5.844;2023-02-21T05:35:13;8.60;95.80
54202;DHT22;40108;53.152;5.844;2023-02-21T05:37:39;8.60;95.80
54202;DHT22;40108;53.152;5.844;2023-02-21T05:40:06;8.60;95.80
54202;DHT22;40108;53.152;5.844;2023-02-21T05:42:32;8.50;95.80
54202;DHT22;40108;53.152;5.844;2023-02-21T05:45:00;8.50;95.80
54202;DHT22;40108;53.152;5.844;2023-02-21T05:47:26;8.50;95.80
54202;DHT22;40108;53.152;5.844;2023-02-21T05:49:52;8.50;95.80
54202;DHT22;40108;53.152;5.844;2023-02-21T05:52:20;8.50;95.80
54202;DHT22;40108;53.152;5.844;2023-02-21T05:54:46;8.50;95.80
54202;DHT22;40108;53.152;5.844;2023-02-21T05:57:12;8.50;95.80
54202;DHT22;40108;53.152;5.844;2023-02-21T05:59:38;8.60;95.80
54202;DHT22;40108;53.152;5.844;2023-02-21T06:02:04;8.50;95.80
54202;DHT22;40108;53.152;5.844;2023-02-21T06:04:29;8.50;95.80
54202;DHT22;40108;53.152;5.844;2023-02-21T06:06:58;8.50;95.90
54202;DHT22;40108;53.152;5.844;2023-02-21T06:09:24;8.50;95.90
54202;DHT22;40108;53.152;5.844;2023-02-21T06:11:54;8.50;95.90
54202;DHT22;40108;53.152;5.844;2023-02-21T06:14:20;8.50;95.90
54202;DHT22;40108;53.152;5.844;2023-02-21T06:16:46;8.50;95.90
54202;DHT22;40108;53.152;5.844;2023-02-21T06:19:14;8.50;95.90
54202;DHT22;40108;53.152;5.844;2023-02-21T06:21:41;8.60;95.90
54202;DHT22;40108;53.152;5.844;2023-02-21T06:24:08;8.60;95.90
54202;DHT22;40108;53.152;5.844;2023-02-21T06:26:35;8.60;95.90
54202;DHT22;40108;53.152;5.844;2023-02-21T06:32:00;8.50;95.90
54202;DHT22;40108;53.152;5.844;2023-02-21T06:34:27;8.60;95.90
54202;DHT22;40108;53.152;5.844;2023-02-21T06:36:57;8.60;95.90
54202;DHT22;40108;53.152;5.844;2023-02-21T06:42:35;8.60;95.90
54202;DHT22;40108;53.152;5.844;2023-02-21T06:45:02;8.60;95.90
54202;DHT22;40108;53.152;5.844;2023-02-21T06:47:30;8.50;95.90
54202;DHT22;40108;53.152;5.844;2023-02-21T06:49:56;8.50;95.90
54202;DHT22;40108;53.152;5.844;2023-02-21T06:52:25;8.50;95.90
54202;DHT22;40108;53.152;5.844;2023-02-21T06:54:53;8.50;95.90
54202;DHT22;40108;53.152;5.844;2023-02-21T06:57:19;8.50;95.90
54202;DHT22;40108;53.152;5.844;2023-02-21T06:59:45;8.50;96.00
54202;DHT22;40108;53.152;5.844;2023-02-21T07:02:17;8.50;95.90
54202;DHT22;40108;53.152;5.844;2023-02-21T07:04:43;8.60;95.90
54202;DHT22;40108;53.152;5.844;2023-02-21T07:07:09;8.50;95.90
54202;DHT22;40108;53.152;5.844;2023-02-21T07:09:37;8.50;95.90
54202;DHT22;40108;53.152;5.844;2023-02-21T07:12:03;8.50;96.00
54202;DHT22;40108;53.152;5.844;2023-02-21T07:14:29;8.50;95.90
54202;DHT22;40108;53.152;5.844;2023-02-21T07:16:55;8.50;95.90
54202;DHT22;40108;53.152;5.844;2023-02-21T07:19:20;8.50;96.00
54202;DHT22;40108;53.152;5.844;2023-02-21T07:21:46;8.50;96.00
54202;DHT22;40108;53.152;5.844;2023-02-21T07:24:12;8.50;96.00
54202;DHT22;40108;53.152;5.844;2023-02-21T07:26:38;8.50;96.00
54202;DHT22;40108;53.152;5.844;2023-02-21T07:29:05;8.50;96.00
54202;DHT22;40108;53.152;5.844;2023-02-21T07:31:31;8.50;96.00
54202;DHT22;40108;53.152;5.844;2023-02-21T07:33:56;8.50;96.00
54202;DHT22;40108;53.152;5.844;2023-02-21T07:36:25;8.50;96.00
54202;DHT22;40108;53.152;5.844;2023-02-21T07:38:50;8.60;96.00
54202;DHT22;40108;53.152;5.844;2023-02-21T07:41:17;8.60;96.00
54202;DHT22;40108;53.152;5.844;2023-02-21T07:43:42;8.60;96.00
54202;DHT22;40108;53.152;5.844;2023-02-21T07:46:13;8.60;96.00
54202;DHT22;40108;53.152;5.844;2023-02-21T07:48:39;8.60;96.10
54202;DHT22;40108;53.152;5.844;2023-02-21T07:51:07;8.60;96.10
54202;DHT22;40108;53.152;5.844;2023-02-21T07:53:33;8.60;96.10
54202;DHT22;40108;53.152;5.844;2023-02-21T07:55:58;8.70;96.10
54202;DHT22;40108;53.152;5.844;2023-02-21T07:58:24;8.70;96.10
54202;DHT22;40108;53.152;5.844;2023-02-21T08:00:51;8.70;96.10
54202;DHT22;40108;53.152;5.844;2023-02-21T08:03:17;8.70;96.10
54202;DHT22;40108;53.152;5.844;2023-02-21T08:05:43;8.70;96.10
54202;DHT22;40108;53.152;5.844;2023-02-21T08:08:10;8.70;96.10
54202;DHT22;40108;53.152;5.844;2023-02-21T08:10:36;8.70;96.10
54202;DHT22;40108;53.152;5.844;2023-02-21T08:13:03;8.80;96.10
54202;DHT22;40108;53.152;5.844;2023-02-21T08:15:31;8.80;96.10
54202;DHT22;40108;53.152;5.844;2023-02-21T08:17:57;8.80;96.10
54202;DHT22;40108;53.152;5.844;2023-02-21T08:20:23;8.90;96.10
54202;DHT22;40108;53.152;5.844;2023-02-21T08:22:49;8.90;96.00
54202;DHT22;40108;53.152;5.844;2023-02-21T08:25:15;8.90;96.00
54202;DHT22;40108;53.152;5.844;2023-02-21T08:27:41;9.00;96.00
54202;DHT22;40108;53.152;5.844;2023-02-21T08:30:11;9.00;95.90
54202;DHT22;40108;53.152;5.844;2023-02-21T08:32:39;9.10;96.00
54202;DHT22;40108;53.152;5.844;2023-02-21T08:35:05;9.10;95.90
54202;DHT22;40108;53.152;5.844;2023-02-21T08:37:33;9.20;95.90
54202;DHT22;40108;53.152;5.844;2023-02-21T08:40:02;9.20;95.80
54202;DHT22;40108;53.152;5.844;2023-02-21T08:42:28;9.30;95.90
54202;DHT22;40108;53.152;5.844;2023-02-21T08:44:54;9.40;95.80
54202;DHT22;40108;53.152;5.844;2023-02-21T08:47:20;9.40;95.70
54202;DHT22;40108;53.152;5.844;2023-02-21T08:49:47;9.40;95.60
54202;DHT22;40108;53.152;5.844;2023-02-21T08:52:14;9.50;95.50
54202;DHT22;40108;53.152;5.844;2023-02-21T08:54:41;9.50;95.40
54202;DHT22;40108;53.152;5.844;2023-02-21T08:57:10;9.50;95.30
54202;DHT22;40108;53.152;5.844;2023-02-21T08:59:42;9.50;95.20
54202;DHT22;40108;53.152;5.844;2023-02-21T09:02:18;9.50;95.20
54202;DHT22;40108;53.152;5.844;2023-02-21T09:04:44;9.50;95.10
54202;DHT22;40108;53.152;5.844;2023-02-21T09:07:15;9.50;95.00
54202;DHT22;40108;53.152;5.844;2023-02-21T09:09:41;9.60;95.00
54202;DHT22;40108;53.152;5.844;2023-02-21T09:12:07;9.60;94.90
54202;DHT22;40108;53.152;5.844;2023-02-21T09:14:34;9.60;94.90
54202;DHT22;40108;53.152;5.844;2023-02-21T09:17:01;9.60;94.70
54202;DHT22;40108;53.152;5.844;2023-02-21T09:19:27;9.60;94.70
54202;DHT22;40108;53.152;5.844;2023-02-21T09:21:53;9.60;94.60
54202;DHT22;40108;53.152;5.844;2023-02-21T09:24:25;9.60;94.50
54202;DHT22;40108;53.152;5.844;2023-02-21T09:26:57;9.60;94.40
54202;DHT22;40108;53.152;5.844;2023-02-21T09:29:31;9.60;94.30
54202;DHT22;40108;53.152;5.844;2023-02-21T09:31:57;9.60;94.30
54202;DHT22;40108;53.152;5.844;2023-02-21T09:34:23;9.60;94.30
54202;DHT22;40108;53.152;5.844;2023-02-21T09:36:48;9.70;94.40
54202;DHT22;40108;53.152;5.844;2023-02-21T09:39:17;9.70;94.40
54202;DHT22;40108;53.152;5.844;2023-02-21T09:41:43;9.70;94.40
54202;DHT22;40108;53.152;5.844;2023-02-21T09:44:14;9.80;94.40
54202;DHT22;40108;53.152;5.844;2023-02-21T09:46:48;9.70;94.10
54202;DHT22;40108;53.152;5.844;2023-02-21T09:49:27;9.80;94.10
54202;DHT22;40108;53.152;5.844;2023-02-21T09:51:55;9.80;94.10
54202;DHT22;40108;53.152;5.844;2023-02-21T09:54:34;9.80;94.10
54202;DHT22;40108;53.152;5.844;2023-02-21T09:57:03;9.80;94.10
54202;DHT22;40108;53.152;5.844;2023-02-21T09:59:29;9.90;94.10
54202;DHT22;40108;53.152;5.844;2023-02-21T10:05:03;10.00;93.90
54202;DHT22;40108;53.152;5.844;2023-02-21T10:07:42;10.00;93.80
54202;DHT22;40108;53.152;5.844;2023-02-21T10:10:20;10.10;93.90
54202;DHT22;40108;53.152;5.844;2023-02-21T10:12:54;10.10;93.60
54202;DHT22;40108;53.152;5.844;2023-02-21T10:18:24;10.40;93.70
54202;DHT22;40108;53.152;5.844;2023-02-21T10:20:57;10.50;93.60
54202;DHT22;40108;53.152;5.844;2023-02-21T10:23:37;10.60;93.30
54202;DHT22;40108;53.152;5.844;2023-02-21T10:26:08;10.60;92.80
54202;DHT22;40108;53.152;5.844;2023-02-21T10:28:35;10.60;92.80
54202;DHT22;40108;53.152;5.844;2023-02-21T10:31:30;10.60;92.60
54202;DHT22;40108;53.152;5.844;2023-02-21T10:33:58;10.60;92.90
54202;DHT22;40108;53.152;5.844;2023-02-21T10:36:27;10.60;92.70
54202;DHT22;40108;53.152;5.844;2023-02-21T10:41:36;10.70;92.70
54202;DHT22;40108;53.152;5.844;2023-02-21T10:44:11;10.80;92.70
54202;DHT22;40108;53.152;5.844;2023-02-21T10:46:48;10.80;92.50
54202;DHT22;40108;53.152;5.844;2023-02-21T10:54:33;11.00;92.10
54202;DHT22;40108;53.152;5.844;2023-02-21T10:56:59;11.00;91.90
54202;DHT22;40108;53.152;5.844;2023-02-21T10:59:47;11.00;91.60
54202;DHT22;40108;53.152;5.844;2023-02-21T11:02:38;11.10;91.80
54202;DHT22;40108;53.152;5.844;2023-02-21T11:05:16;11.10;91.70
54202;DHT22;40108;53.152;5.844;2023-02-21T11:10:41;11.10;91.50
54202;DHT22;40108;53.152;5.844;2023-02-21T11:13:17;11.10;91.60
54202;DHT22;40108;53.152;5.844;2023-02-21T11:15:45;11.00;91.50
54202;DHT22;40108;53.152;5.844;2023-02-21T11:18:14;11.10;91.40
54202;DHT22;40108;53.152;5.844;2023-02-21T11:20:40;11.10;91.40
54202;DHT22;40108;53.152;5.844;2023-02-21T11:23:26;11.10;91.30
54202;DHT22;40108;53.152;5.844;2023-02-21T11:26:07;11.10;91.20
54202;DHT22;40108;53.152;5.844;2023-02-21T11:28:41;11.00;91.10
54202;DHT22;40108;53.152;5.844;2023-02-21T11:31:34;11.10;91.20
54202;DHT22;40108;53.152;5.844;2023-02-21T11:34:06;11.10;91.20
54202;DHT22;40108;53.152;5.844;2023-02-21T11:36:38;11.10;91.20
54202;DHT22;40108;53.152;5.844;2023-02-21T11:39:23;11.00;90.90
54202;DHT22;40108;53.152;5.844;2023-02-21T11:41:56;11.00;90.80
54202;DHT22;40108;53.152;5.844;2023-02-21T11:44:36;11.00;91.00
54202;DHT22;40108;53.152;5.844;2023-02-21T11:47:06;10.90;91.00
54202;DHT22;40108;53.152;5.844;2023-02-21T11:50:22;11.00;91.00
54202;DHT22;40108;53.152;5.844;2023-02-21T11:52:33;11.00;91.00
54202;DHT22;40108;53.152;5.844;2023-02-21T11:55:12;11.00;91.00
54202;DHT22;40108;53.152;5.844;2023-02-21T12:01:25;10.90;90.90
54202;DHT22;40108;53.152;5.844;2023-02-21T12:06:35;10.80;90.70
54202;DHT22;40108;53.152;5.844;2023-02-21T12:12:01;10.80;91.00
54202;DHT22;40108;53.152;5.844;2023-02-21T12:14:48;10.70;90.90
54202;DHT22;40108;53.152;5.844;2023-02-21T12:20:14;10.70;91.10
54202;DHT22;40108;53.152;5.844;2023-02-21T12:23:07;10.70;91.10
54202;DHT22;40108;53.152;5.844;2023-02-21T12:26:15;10.70;91.10
54202;DHT22;40108;53.152;5.844;2023-02-21T12:31:28;10.70;91.30
54202;DHT22;40108;53.152;5.844;2023-02-21T12:42:17;10.70;91.20
54202;DHT22;40108;53.152;5.844;2023-02-21T12:47:45;10.60;91.30
54202;DHT22;40108;53.152;5.844;2023-02-21T12:50:28;10.60;91.20
54202;DHT22;40108;53.152;5.844;2023-02-21T12:55:47;10.50;91.30
54202;DHT22;40108;53.152;5.844;2023-02-21T12:58:33;10.50;91.30
54202;DHT22;40108;53.152;5.844;2023-02-21T13:01:11;10.50;91.30
54202;DHT22;40108;53.152;5.844;2023-02-21T13:04:13;10.40;91.30
54202;DHT22;40108;53.152;5.844;2023-02-21T13:10:02;10.40;91.50
54202;DHT22;40108;53.152;5.844;2023-02-21T13:15:22;10.40;91.50
54202;DHT22;40108;53.152;5.844;2023-02-21T13:20:32;10.40;91.70
54202;DHT22;40108;53.152;5.844;2023-02-21T13:28:43;10.40;91.80
54202;DHT22;40108;53.152;5.844;2023-02-21T13:31:38;10.30;91.80
54202;DHT22;40108;53.152;5.844;2023-02-21T13:34:08;10.30;92.00
54202;DHT22;40108;53.152;5.844;2023-02-21T13:39:30;10.30;92.10
54202;DHT22;40108;53.152;5.844;2023-02-21T13:42:15;10.30;92.20
54202;DHT22;40108;53.152;5.844;2023-02-21T13:44:45;10.30;92.30
54202;DHT22;40108;53.152;5.844;2023-02-21T13:47:16;10.30;92.40
54202;DHT22;40108;53.152;5.844;2023-02-21T13:58:22;10.20;92.60
54202;DHT22;40108;53.152;5.844;2023-02-21T14:10:58;10.00;92.90
54202;DHT22;40108;53.152;5.844;2023-02-21T14:13:32;10.00;92.90
54202;DHT22;40108;53.152;5.844;2023-02-21T14:29:38;9.90;93.20
54202;DHT22;40108;53.152;5.844;2023-02-21T14:40:20;9.80;93.30
54202;DHT22;40108;53.152;5.844;2023-02-21T15:00:03;9.70;93.60
54202;DHT22;40108;53.152;5.844;2023-02-21T15:03:07;9.60;93.70
54202;DHT22;40108;53.152;5.844;2023-02-21T15:05:46;9.60;93.60
54202;DHT22;40108;53.152;5.844;2023-02-21T15:08:21;9.60;93.70
54202;DHT22;40108;53.152;5.844;2023-02-21T15:11:00;9.60;93.70
54202;DHT22;40108;53.152;5.844;2023-02-21T15:13:33;9.60;93.70
54202;DHT22;40108;53.152;5.844;2023-02-21T15:16:05;9.60;93.70
54202;DHT22;40108;53.152;5.844;2023-02-21T15:18:39;9.60;93.80
54202;DHT22;40108;53.152;5.844;2023-02-21T15:23:44;9.50;93.80
54202;DHT22;40108;53.152;5.844;2023-02-21T15:26:22;9.50;93.80
54202;DHT22;40108;53.152;5.844;2023-02-21T15:29:17;9.50;93.90
54202;DHT22;40108;53.152;5.844;2023-02-21T15:31:51;9.50;93.80
54202;DHT22;40108;53.152;5.844;2023-02-21T15:34:22;9.50;93.90
54202;DHT22;40108;53.152;5.844;2023-02-21T15:40:20;9.50;93.90
54202;DHT22;40108;53.152;5.844;2023-02-21T15:42:55;9.40;93.90
54202;DHT22;40108;53.152;5.844;2023-02-21T15:45:28;9.40;94.10
54202;DHT22;40108;53.152;5.844;2023-02-21T15:47:58;9.40;94.10
54202;DHT22;40108;53.152;5.844;2023-02-21T15:50:42;9.30;94.10
54202;DHT22;40108;53.152;5.844;2023-02-21T15:53:21;9.30;94.20
54202;DHT22;40108;53.152;5.844;2023-02-21T15:55:49;9.40;94.20
54202;DHT22;40108;53.152;5.844;2023-02-21T15:58:20;9.40;94.20
54202;DHT22;40108;53.152;5.844;2023-02-21T16:01:01;9.30;94.20
54202;DHT22;40108;53.152;5.844;2023-02-21T16:03:41;9.30;94.30
54202;DHT22;40108;53.152;5.844;2023-02-21T16:06:27;9.30;94.30
54202;DHT22;40108;53.152;5.844;2023-02-21T16:08:58;9.30;94.40
54202;DHT22;40108;53.152;5.844;2023-02-21T16:11:44;9.30;94.40
54202;DHT22;40108;53.152;5.844;2023-02-21T16:19:53;9.30;94.50
54202;DHT22;40108;53.152;5.844;2023-02-21T16:22:36;9.20;94.50
54202;DHT22;40108;53.152;5.844;2023-02-21T16:25:15;9.20;94.50
54202;DHT22;40108;53.152;5.844;2023-02-21T16:27:53;9.20;94.60
54202;DHT22;40108;53.152;5.844;2023-02-21T16:30:34;9.20;94.60
54202;DHT22;40108;53.152;5.844;2023-02-21T16:33:02;9.20;94.70
54202;DHT22;40108;53.152;5.844;2023-02-21T16:35:29;9.10;94.70
54202;DHT22;40108;53.152;5.844;2023-02-21T16:37:59;9.10;94.70
54202;DHT22;40108;53.152;5.844;2023-02-21T16:40:32;9.10;94.60
54202;DHT22;40108;53.152;5.844;2023-02-21T16:42:59;9.10;94.70
54202;DHT22;40108;53.152;5.844;2023-02-21T16:45:29;9.10;94.80
54202;DHT22;40108;53.152;5.844;2023-02-21T16:48:05;9.00;94.80
54202;DHT22;40108;53.152;5.844;2023-02-21T16:50:36;9.00;94.80
54202;DHT22;40108;53.152;5.844;2023-02-21T16:53:06;9.00;94.80
54202;DHT22;40108;53.152;5.844;2023-02-21T16:55:37;8.90;94.90
54202;DHT22;40108;53.152;5.844;2023-02-21T16:58:37;8.90;94.90
54202;DHT22;40108;53.152;5.844;2023-02-21T17:01:27;8.90;95.00
54202;DHT22;40108;53.152;5.844;2023-02-21T17:03:54;8.90;95.00
54202;DHT22;40108;53.152;5.844;2023-02-21T17:06:22;8.80;95.00
54202;DHT22;40108;53.152;5.844;2023-02-21T17:08:48;8.80;95.10
54202;DHT22;40108;53.152;5.844;2023-02-21T17:11:14;8.80;95.20
54202;DHT22;40108;53.152;5.844;2023-02-21T17:13:40;8.80;95.20
54202;DHT22;40108;53.152;5.844;2023-02-21T17:16:06;8.80;95.20
54202;DHT22;40108;53.152;5.844;2023-02-21T17:18:32;8.80;95.20
54202;DHT22;40108;53.152;5.844;2023-02-21T17:21:00;8.70;95.20
54202;DHT22;40108;53.152;5.844;2023-02-21T17:23:26;8.70;95.30
54202;DHT22;40108;53.152;5.844;2023-02-21T17:25:52;8.70;95.30
54202;DHT22;40108;53.152;5.844;2023-02-21T17:28:18;8.70;95.30
54202;DHT22;40108;53.152;5.844;2023-02-21T17:30:49;8.70;95.40
54202;DHT22;40108;53.152;5.844;2023-02-21T17:33:17;8.70;95.40
54202;DHT22;40108;53.152;5.844;2023-02-21T17:35:43;8.70;95.40
54202;DHT22;40108;53.152;5.844;2023-02-21T17:38:09;8.70;95.40
54202;DHT22;40108;53.152;5.844;2023-02-21T17:40:35;8.70;95.50
54202;DHT22;40108;53.152;5.844;2023-02-21T17:43:01;8.70;95.50
54202;DHT22;40108;53.152;5.844;2023-02-21T17:45:29;8.70;95.50
54202;DHT22;40108;53.152;5.844;2023-02-21T17:47:55;8.70;95.60
54202;DHT22;40108;53.152;5.844;2023-02-21T17:50:23;8.60;95.50
54202;DHT22;40108;53.152;5.844;2023-02-21T17:52:50;8.60;95.50
54202;DHT22;40108;53.152;5.844;2023-02-21T17:55:22;8.60;95.50
54202;DHT22;40108;53.152;5.844;2023-02-21T17:57:50;8.60;95.60
54202;DHT22;40108;53.152;5.844;2023-02-21T18:04:04;8.60;95.60
54202;DHT22;40108;53.152;5.844;2023-02-21T18:06:49;8.60;95.70
54202;DHT22;40108;53.152;5.844;2023-02-21T18:09:50;8.60;95.70
54202;DHT22;40108;53.152;5.844;2023-02-21T18:13:26;8.50;95.70
54202;DHT22;40108;53.152;5.844;2023-02-21T18:16:23;8.50;95.70
54202;DHT22;40108;53.152;5.844;2023-02-21T18:18:52;8.50;95.70
54202;DHT22;40108;53.152;5.844;2023-02-21T18:21:18;8.50;95.80
54202;DHT22;40108;53.152;5.844;2023-02-21T18:23:49;8.50;95.80
54202;DHT22;40108;53.152;5.844;2023-02-21T18:26:18;8.50;95.80
54202;DHT22;40108;53.152;5.844;2023-02-21T18:29:29;8.50;95.80
54202;DHT22;40108;53.152;5.844;2023-02-21T18:31:47;8.50;95.80
54202;DHT22;40108;53.152;5.844;2023-02-21T18:38:45;8.50;95.80
54202;DHT22;40108;53.152;5.844;2023-02-21T18:42:09;8.50;95.90
54202;DHT22;40108;53.152;5.844;2023-02-21T18:44:48;8.50;95.80
54202;DHT22;40108;53.152;5.844;2023-02-21T18:47:18;8.50;95.90
54202;DHT22;40108;53.152;5.844;2023-02-21T18:52:45;8.50;95.90
54202;DHT22;40108;53.152;5.844;2023-02-21T18:55:36;8.40;95.90
54202;DHT22;40108;53.152;5.844;2023-02-21T18:58:41;8.40;96.00
54202;DHT22;40108;53.152;5.844;2023-02-21T19:01:32;8.40;96.00
54202;DHT22;40108;53.152;5.844;2023-02-21T19:08:38;8.40;96.10
54202;DHT22;40108;53.152;5.844;2023-02-21T19:11:35;8.40;96.10
54202;DHT22;40108;53.152;5.844;2023-02-21T19:24:29;8.30;96.50
54202;DHT22;40108;53.152;5.844;2023-02-21T19:27:12;8.30;96.50
54202;DHT22;40108;53.152;5.844;2023-02-21T19:29:55;8.20;96.50
54202;DHT22;40108;53.152;5.844;2023-02-21T19:32:38;8.20;96.60
54202;DHT22;40108;53.152;5.844;2023-02-21T19:35:07;8.20;96.60
54202;DHT22;40108;53.152;5.844;2023-02-21T19:37:33;8.20;96.60